createdAt,value
2022-10-09T00:02:04.620Z,96.76
2022-10-09T00:04:33.736Z,95.99
2022-10-09T00:07:02.958Z,96.19
2022-10-09T00:09:32.128Z,96.32
2022-10-09T00:12:01.034Z,97.34
2022-10-09T00:14:30.230Z,97.20
2022-10-09T00:16:59.298Z,97.48
2022-10-09T00:19:28.560Z,97.81
2022-10-09T00:21:57.617Z,97.76
2022-10-09T00:24:26.887Z,97.80
2022-10-09T00:26:56.011Z,97.79
2022-10-09T00:29:24.985Z,97.46
2022-10-09T00:31:53.873Z,97.82
2022-10-09T00:34:22.888Z,98.12
2022-10-09T00:36:51.829Z,97.68
2022-10-09T00:39:21.080Z,96.88
2022-10-09T00:41:50.149Z,96.82
2022-10-09T00:45:04.525Z,96.02
2022-10-09T00:47:40.762Z,96.53
2022-10-09T00:50:36.899Z,96.28
2022-10-09T00:53:06.273Z,96.25
2022-10-09T00:55:37.047Z,97.62
2022-10-09T00:58:06.971Z,99.42
2022-10-09T01:00:37.935Z,98.92
2022-10-09T01:03:08.237Z,98.56
2022-10-09T01:06:26.564Z,98.07
2022-10-09T01:09:29.028Z,99.02
2022-10-09T01:12:23.024Z,97.93
2022-10-09T01:15:09.757Z,97.92
2022-10-09T01:18:01.261Z,98.01
2022-10-09T01:20:33.801Z,98.39
2022-10-09T01:23:21.642Z,98.62
2022-10-09T01:25:59.582Z,98.86
2022-10-09T01:28:31.919Z,99.22
2022-10-09T01:31:03.112Z,98.04
2022-10-09T01:33:34.599Z,98.94
2022-10-09T01:36:06.184Z,99.00
2022-10-09T01:38:38.201Z,98.34
2022-10-09T01:41:09.504Z,98.38
2022-10-09T01:43:40.115Z,97.64
2022-10-09T01:46:35.684Z,97.16
2022-10-09T01:49:31.698Z,98.30
2022-10-09T01:52:13.213Z,97.35
2022-10-09T01:54:56.548Z,96.92
2022-10-09T01:57:40.648Z,95.64
2022-10-09T02:00:13.146Z,95.64
2022-10-09T02:02:44.791Z,96.48
2022-10-09T02:05:22.907Z,96.23
2022-10-09T02:07:53.386Z,95.83
2022-10-09T02:10:24.771Z,95.58
2022-10-09T02:13:02.405Z,96.64
2022-10-09T02:15:44.128Z,96.43
2022-10-09T02:18:16.641Z,95.99
2022-10-09T02:20:52.675Z,93.37
2022-10-09T02:23:25.545Z,95.52
2022-10-09T02:25:55.884Z,96.07
2022-10-09T02:28:26.032Z,95.72
2022-10-09T02:31:29.504Z,94.80
2022-10-09T02:34:01.557Z,94.98
2022-10-09T02:36:32.417Z,93.97
2022-10-09T02:39:03.548Z,93.47
2022-10-09T02:41:33.197Z,92.47
2022-10-09T02:44:03.255Z,93.99
2022-10-09T02:46:33.611Z,93.42
2022-10-09T02:49:03.911Z,92.59
2022-10-09T02:51:34.068Z,91.92
2022-10-09T02:54:04.255Z,91.17
2022-10-09T02:56:37.955Z,90.44
2022-10-09T02:59:08.945Z,88.79
2022-10-09T03:01:39.231Z,88.56
2022-10-09T03:04:08.761Z,88.80
2022-10-09T03:06:38.414Z,88.32
2022-10-09T03:09:08.604Z,88.47
2022-10-09T03:11:38.246Z,88.72
2022-10-09T03:14:07.804Z,89.25
2022-10-09T03:16:37.613Z,88.98
2022-10-09T03:19:07.707Z,87.91
2022-10-09T03:21:36.869Z,88.13
2022-10-09T03:24:07.012Z,87.64
2022-10-09T03:26:37.012Z,87.47
2022-10-09T03:29:06.504Z,87.49
2022-10-09T03:31:52.921Z,88.09
2022-10-09T03:34:23.443Z,88.45
2022-10-09T03:36:52.854Z,86.82
2022-10-09T03:39:22.568Z,87.61
2022-10-09T03:41:56.694Z,86.60
2022-10-09T03:44:28.072Z,85.62
2022-10-09T03:46:59.159Z,86.96
2022-10-09T03:49:29.617Z,86.37
2022-10-09T03:51:59.147Z,85.58
2022-10-09T03:54:28.490Z,85.28
2022-10-09T03:56:58.429Z,84.48
2022-10-09T03:59:28.192Z,84.22
2022-10-09T04:01:59.763Z,83.81
2022-10-09T04:04:29.178Z,82.67
2022-10-09T04:06:58.919Z,81.89
2022-10-09T04:09:28.362Z,81.72
2022-10-09T04:11:57.675Z,81.86
2022-10-09T04:14:27.643Z,81.17
2022-10-09T04:16:57.110Z,79.85
2022-10-09T04:19:26.964Z,79.87
2022-10-09T04:21:56.696Z,78.84
2022-10-09T04:24:26.114Z,79.33
2022-10-09T04:26:55.877Z,79.15
2022-10-09T04:29:25.615Z,79.11
2022-10-09T04:31:54.695Z,78.29
2022-10-09T04:34:23.976Z,78.04
2022-10-09T04:36:52.987Z,77.83
2022-10-09T04:39:22.311Z,77.54
2022-10-09T04:41:51.243Z,77.01
2022-10-09T04:44:20.517Z,76.84
2022-10-09T04:46:52.813Z,76.85
2022-10-09T04:49:22.147Z,76.66
2022-10-09T04:51:51.121Z,76.09
2022-10-09T04:54:20.405Z,76.43
2022-10-09T04:56:49.400Z,76.67
2022-10-09T04:59:18.737Z,76.11
2022-10-09T05:01:48.003Z,74.65
2022-10-09T05:04:17.347Z,75.77
2022-10-09T05:06:46.398Z,75.60
2022-10-09T05:09:15.561Z,74.72
2022-10-09T05:11:44.543Z,74.47
2022-10-09T05:14:13.814Z,74.06
2022-10-09T05:17:08.316Z,74.12
2022-10-09T05:19:33.384Z,74.44
2022-10-09T05:22:02.802Z,73.76
2022-10-09T05:24:32.093Z,73.63
2022-10-09T05:27:01.173Z,73.60
2022-10-09T05:29:30.653Z,72.77
2022-10-09T05:31:59.553Z,72.80
2022-10-09T05:34:28.802Z,72.65
2022-10-09T05:36:57.943Z,73.23
2022-10-09T05:39:27.129Z,72.11
2022-10-09T05:41:56.106Z,71.85
2022-10-09T05:44:25.900Z,71.62
2022-10-09T05:46:55.018Z,72.32
2022-10-09T05:49:24.091Z,71.97
2022-10-09T05:51:53.161Z,71.57
2022-10-09T05:54:22.247Z,70.70
2022-10-09T05:56:51.680Z,70.90
2022-10-09T05:59:21.243Z,69.30
2022-10-09T06:01:53.023Z,70.34
2022-10-09T06:04:24.549Z,69.84
2022-10-09T06:06:54.018Z,70.17
2022-10-09T06:09:25.265Z,70.45
2022-10-09T06:11:56.162Z,69.39
2022-10-09T06:14:26.260Z,69.11
2022-10-09T06:16:56.920Z,68.80
2022-10-09T06:19:26.407Z,69.05
2022-10-09T06:21:55.442Z,68.80
2022-10-09T06:24:28.984Z,68.48
2022-10-09T06:26:59.542Z,68.82
2022-10-09T06:29:28.910Z,68.42
2022-10-09T06:31:58.331Z,68.06
2022-10-09T06:34:27.264Z,68.53
2022-10-09T06:36:57.021Z,68.53
2022-10-09T06:39:27.392Z,68.17
2022-10-09T06:41:56.444Z,67.49
2022-10-09T06:44:33.914Z,68.11
2022-10-09T06:47:03.115Z,68.59
2022-10-09T06:49:32.120Z,69.40
2022-10-09T06:52:01.581Z,69.38
2022-10-09T06:54:30.540Z,68.85
2022-10-09T06:56:59.702Z,69.82
2022-10-09T06:59:28.936Z,69.70
2022-10-09T07:01:58.450Z,70.01
2022-10-09T07:04:27.990Z,69.20
2022-10-09T07:06:57.516Z,68.97
2022-10-09T07:09:26.407Z,69.47
2022-10-09T07:11:55.511Z,70.47
2022-10-09T07:14:24.701Z,69.69
2022-10-09T07:16:54.520Z,70.82
2022-10-09T07:19:23.724Z,71.60
2022-10-09T07:21:54.300Z,71.49
2022-10-09T07:24:25.665Z,70.92
2022-10-09T07:26:58.788Z,70.00
2022-10-09T07:29:27.879Z,69.91
2022-10-09T07:31:56.906Z,69.66
2022-10-09T07:34:26.433Z,69.30
2022-10-09T07:36:55.445Z,70.04
2022-10-09T07:39:24.686Z,70.06
2022-10-09T07:41:54.073Z,70.56
2022-10-09T07:44:23.488Z,70.38
2022-10-09T07:46:52.792Z,70.73
2022-10-09T07:49:22.250Z,71.45
2022-10-09T07:51:51.169Z,71.53
2022-10-09T07:54:20.621Z,70.05
2022-10-09T07:56:49.951Z,69.59
2022-10-09T07:59:19.613Z,69.94
2022-10-09T08:01:48.771Z,69.85
2022-10-09T08:04:21.411Z,68.90
2022-10-09T08:06:50.819Z,68.98
2022-10-09T08:09:20.022Z,68.18
2022-10-09T08:11:49.397Z,68.51
2022-10-09T08:14:19.786Z,68.23
2022-10-09T08:16:49.784Z,68.46
2022-10-09T08:19:19.145Z,67.59
2022-10-09T08:21:48.569Z,67.00
2022-10-09T08:24:18.090Z,68.04
2022-10-09T08:26:47.407Z,68.90
2022-10-09T08:29:17.658Z,68.95
2022-10-09T08:31:47.373Z,68.57
2022-10-09T08:34:16.431Z,68.16
2022-10-09T08:36:46.184Z,68.43
2022-10-09T08:39:15.831Z,68.69
2022-10-09T08:41:55.733Z,68.05
2022-10-09T08:44:47.815Z,69.81
2022-10-09T08:47:39.523Z,68.50
2022-10-09T08:50:17.852Z,69.22
2022-10-09T08:52:57.058Z,67.67
2022-10-09T08:55:49.010Z,68.15
2022-10-09T08:58:21.090Z,68.33
2022-10-09T09:00:59.613Z,68.62
2022-10-09T09:03:50.222Z,69.07
2022-10-09T09:06:46.811Z,69.79
2022-10-09T09:09:57.645Z,69.03
2022-10-09T09:12:29.533Z,68.60
2022-10-09T09:15:20.063Z,67.97
2022-10-09T09:18:22.124Z,68.48
2022-10-09T09:20:57.004Z,69.20
2022-10-09T09:23:52.736Z,68.63
2022-10-09T09:26:23.817Z,68.45
2022-10-09T09:28:58.661Z,68.70
2022-10-09T09:31:32.695Z,68.26
2022-10-09T09:34:24.545Z,67.99
2022-10-09T09:36:59.310Z,67.65
2022-10-09T09:42:23.817Z,68.49
2022-10-09T09:45:08.456Z,68.64
2022-10-09T09:47:47.294Z,68.86
2022-10-09T09:50:42.356Z,68.93
2022-10-09T09:53:16.079Z,68.46
2022-10-09T09:55:45.995Z,67.98
2022-10-09T09:58:20.245Z,68.47
2022-10-09T10:01:05.115Z,68.21
2022-10-09T10:03:36.698Z,67.82
2022-10-09T10:06:07.249Z,68.02
2022-10-09T10:08:37.001Z,67.45
2022-10-09T10:11:09.833Z,67.47
2022-10-09T10:13:47.446Z,68.00
2022-10-09T10:16:29.842Z,68.11
2022-10-09T10:18:59.985Z,67.88
2022-10-09T10:21:43.554Z,68.76
2022-10-09T10:24:21.577Z,69.40
2022-10-09T10:26:59.961Z,68.86
2022-10-09T10:29:45.874Z,69.34
2022-10-09T10:32:36.144Z,68.15
2022-10-09T10:35:16.198Z,68.59
2022-10-09T10:37:55.122Z,68.06
2022-10-09T10:40:34.476Z,69.53
2022-10-09T10:43:12.546Z,69.35
2022-10-09T10:46:00.237Z,68.82
2022-10-09T10:48:34.638Z,67.71
2022-10-09T10:51:26.149Z,68.61
2022-10-09T10:54:10.452Z,70.31
2022-10-09T10:56:44.799Z,70.08
2022-10-09T10:59:44.388Z,68.91
2022-10-09T11:02:41.879Z,69.61
2022-10-09T11:05:28.599Z,70.01
2022-10-09T11:08:30.138Z,70.30
2022-10-09T11:11:17.809Z,70.04
2022-10-09T11:14:10.287Z,70.54
2022-10-09T11:16:39.222Z,71.25
2022-10-09T11:19:19.059Z,71.27
2022-10-09T11:22:25.452Z,71.46
2022-10-09T11:25:05.956Z,71.43
2022-10-09T11:27:35.783Z,70.94
2022-10-09T11:30:12.311Z,70.86
2022-10-09T11:32:55.882Z,71.86
2022-10-09T11:35:28.352Z,71.30
2022-10-09T11:38:08.124Z,71.17
2022-10-09T11:40:47.405Z,70.17
2022-10-09T11:43:29.672Z,71.03
2022-10-09T11:46:11.471Z,70.68
2022-10-09T11:48:55.473Z,71.02
2022-10-09T11:51:39.735Z,71.17
2022-10-09T11:54:19.903Z,71.78
2022-10-09T11:57:00.911Z,72.25
2022-10-09T11:59:32.646Z,71.77
2022-10-09T12:02:15.303Z,71.80
2022-10-09T12:04:54.462Z,71.65
2022-10-09T12:07:40.260Z,72.21
2022-10-09T12:10:37.641Z,72.19
2022-10-09T12:13:09.425Z,73.03
2022-10-09T12:15:41.211Z,73.51
2022-10-09T12:18:26.413Z,73.11
2022-10-09T12:20:57.872Z,73.74
2022-10-09T12:23:33.487Z,73.50
2022-10-09T12:26:04.758Z,73.71
2022-10-09T12:28:44.962Z,73.98
2022-10-09T12:31:29.506Z,73.58
2022-10-09T12:34:33.945Z,73.94
2022-10-09T12:37:15.281Z,73.93
2022-10-09T12:39:46.086Z,74.64
2022-10-09T12:42:26.293Z,74.39
2022-10-09T12:44:57.186Z,75.06
2022-10-09T12:47:29.995Z,75.16
2022-10-09T12:50:17.934Z,74.62
2022-10-09T12:52:51.555Z,75.36
2022-10-09T12:55:37.503Z,74.86
2022-10-09T12:58:17.947Z,75.58
2022-10-09T13:00:50.674Z,76.35
2022-10-09T13:03:38.312Z,76.20
2022-10-09T13:06:19.840Z,76.52
2022-10-09T13:08:56.913Z,77.04
2022-10-09T13:11:34.716Z,76.91
2022-10-09T13:14:04.157Z,77.18
2022-10-09T13:16:44.701Z,77.58
2022-10-09T13:19:36.393Z,77.25
2022-10-09T13:22:35.055Z,77.29
2022-10-09T13:25:06.656Z,76.87
2022-10-09T13:27:41.160Z,76.84
2022-10-09T13:30:12.696Z,76.73
2022-10-09T13:32:41.909Z,76.22
2022-10-09T13:35:11.493Z,76.81
2022-10-09T13:37:41.041Z,76.70
2022-10-09T13:40:19.616Z,76.92
2022-10-09T13:42:57.594Z,77.34
2022-10-09T13:45:27.762Z,76.98
2022-10-09T13:47:56.740Z,77.44
2022-10-09T13:50:25.981Z,77.27
2022-10-09T13:52:55.192Z,77.50
2022-10-09T13:55:24.456Z,77.58
2022-10-09T13:57:54.735Z,77.91
2022-10-09T14:00:24.349Z,78.11
2022-10-09T14:02:53.344Z,78.24
2022-10-09T14:05:23.299Z,77.82
2022-10-09T14:07:52.548Z,78.39
2022-10-09T14:10:24.189Z,78.49
2022-10-09T14:12:53.909Z,78.65
2022-10-09T14:15:22.963Z,78.89
2022-10-09T14:17:52.343Z,78.95
2022-10-09T14:20:21.696Z,78.93
2022-10-09T14:22:51.351Z,80.14
2022-10-09T14:25:20.702Z,79.23
2022-10-09T14:27:50.177Z,79.92
2022-10-09T14:30:19.631Z,81.04
2022-10-09T14:32:49.154Z,80.71
2022-10-09T14:35:21.498Z,81.27
2022-10-09T14:37:51.062Z,81.38
2022-10-09T14:40:20.305Z,81.15
2022-10-09T14:42:49.983Z,82.32
2022-10-09T14:45:19.473Z,82.92
2022-10-09T14:47:48.498Z,83.40
2022-10-09T14:50:17.952Z,83.10
2022-10-09T14:52:47.207Z,82.86
2022-10-09T14:55:16.829Z,82.52
2022-10-09T14:57:45.844Z,82.45
2022-10-09T15:00:15.944Z,81.68
2022-10-09T15:02:45.555Z,81.02
2022-10-09T15:05:14.625Z,81.03
2022-10-09T15:07:43.917Z,81.22
2022-10-09T15:10:13.465Z,80.69
2022-10-09T15:12:43.169Z,79.85
2022-10-09T15:15:12.375Z,80.82
2022-10-09T15:17:41.648Z,80.44
2022-10-09T15:20:11.663Z,79.66
2022-10-09T15:22:41.359Z,80.00
2022-10-09T15:25:11.833Z,79.51
2022-10-09T15:27:41.353Z,79.39
2022-10-09T15:30:11.243Z,80.37
2022-10-09T15:32:40.664Z,79.42
2022-10-09T15:35:11.018Z,79.47
2022-10-09T15:37:45.531Z,78.91
2022-10-09T15:40:15.875Z,79.83
2022-10-09T15:42:51.580Z,80.75
2022-10-09T15:45:22.235Z,80.66
2022-10-09T15:47:54.389Z,80.47
2022-10-09T15:50:25.030Z,79.89
2022-10-09T15:52:58.510Z,80.25
2022-10-09T15:55:29.410Z,80.57
2022-10-09T15:57:59.193Z,81.06
2022-10-09T16:00:28.173Z,81.14
2022-10-09T16:02:57.517Z,80.71
2022-10-09T16:05:26.694Z,80.58
2022-10-09T16:07:55.986Z,80.59
2022-10-09T16:10:25.114Z,80.44
2022-10-09T16:12:54.501Z,79.85
2022-10-09T16:15:23.622Z,80.63
2022-10-09T16:17:53.027Z,80.32
2022-10-09T16:20:22.759Z,80.43
2022-10-09T16:22:52.252Z,80.46
2022-10-09T16:25:21.689Z,80.84
2022-10-09T16:27:51.320Z,80.02
2022-10-09T16:30:20.665Z,80.10
2022-10-09T16:32:51.012Z,80.18
2022-10-09T16:35:20.768Z,80.09
2022-10-09T16:37:49.812Z,80.18
2022-10-09T16:40:19.193Z,80.24
2022-10-09T16:42:49.378Z,79.96
2022-10-09T16:45:19.131Z,80.14
2022-10-09T16:47:49.819Z,79.94
2022-10-09T16:50:19.215Z,80.46
2022-10-09T16:52:48.311Z,80.81
2022-10-09T16:55:17.982Z,81.01
2022-10-09T16:57:47.356Z,80.92
2022-10-09T17:00:19.381Z,81.24
2022-10-09T17:02:49.101Z,80.86
2022-10-09T17:05:18.440Z,81.61
2022-10-09T17:07:48.150Z,81.67
2022-10-09T17:10:17.503Z,81.88
2022-10-09T17:12:46.864Z,81.49
2022-10-09T17:15:15.996Z,82.33
2022-10-09T17:17:45.445Z,81.43
2022-10-09T17:20:14.488Z,81.53
2022-10-09T17:22:43.839Z,82.54
2022-10-09T17:25:14.258Z,82.49
2022-10-09T17:27:43.636Z,82.77
2022-10-09T17:30:13.388Z,82.67
2022-10-09T17:32:42.835Z,82.85
2022-10-09T17:35:12.018Z,83.80
2022-10-09T17:37:41.410Z,83.62
2022-10-09T17:40:11.035Z,83.13
2022-10-09T17:42:40.516Z,83.94
2022-10-09T17:45:10.636Z,83.84
2022-10-09T17:47:40.298Z,84.16
2022-10-09T17:50:09.739Z,83.73
2022-10-09T17:52:38.804Z,84.23
2022-10-09T17:55:08.646Z,83.97
2022-10-09T17:57:37.760Z,84.27
2022-10-09T18:00:07.426Z,85.22
2022-10-09T18:02:36.523Z,85.03
2022-10-09T18:05:05.960Z,84.61
2022-10-09T18:07:34.942Z,84.73
2022-10-09T18:10:04.222Z,84.21
2022-10-09T18:12:33.776Z,83.45
2022-10-09T18:15:06.128Z,83.81
2022-10-09T18:17:36.313Z,83.45
2022-10-09T18:20:06.249Z,83.45
2022-10-09T18:22:38.067Z,82.56
2022-10-09T18:25:08.084Z,82.76
2022-10-09T18:27:37.385Z,82.68
2022-10-09T18:30:07.367Z,82.63
2022-10-09T18:32:39.243Z,82.41
2022-10-09T18:35:08.895Z,82.39
2022-10-09T18:37:38.195Z,82.76
2022-10-09T18:40:09.753Z,82.50
2022-10-09T18:42:39.196Z,82.64
2022-10-09T18:45:10.922Z,82.29
2022-10-09T18:47:41.016Z,81.43
2022-10-09T18:50:12.625Z,81.29
2022-10-09T18:52:44.376Z,81.46
2022-10-09T18:55:16.315Z,80.72
2022-10-09T18:57:48.219Z,81.19
2022-10-09T19:00:21.199Z,81.75
2022-10-09T19:02:51.780Z,82.15
2022-10-09T19:05:24.939Z,82.68
2022-10-09T19:07:54.162Z,82.57
2022-10-09T19:10:23.676Z,82.46
2022-10-09T19:12:53.682Z,82.46
2022-10-09T19:15:23.405Z,83.51
2022-10-09T19:17:52.808Z,83.06
2022-10-09T19:20:23.288Z,83.25
2022-10-09T19:22:52.426Z,83.00
2022-10-09T19:25:21.570Z,83.70
2022-10-09T19:27:51.142Z,83.35
2022-10-09T19:30:21.046Z,83.79
2022-10-09T19:32:51.432Z,83.59
2022-10-09T19:35:21.307Z,83.68
2022-10-09T19:37:50.633Z,84.92
2022-10-09T19:40:23.067Z,84.73
2022-10-09T19:42:52.262Z,85.07
2022-10-09T19:45:21.239Z,85.16
2022-10-09T19:47:54.161Z,85.10
2022-10-09T19:50:25.113Z,85.63
2022-10-09T19:52:55.168Z,85.30
2022-10-09T19:55:30.119Z,85.42
2022-10-09T19:58:00.223Z,86.05
2022-10-09T20:00:30.717Z,86.38
2022-10-09T20:03:02.946Z,86.02
2022-10-09T20:05:34.314Z,86.44
2022-10-09T20:08:05.179Z,85.28
2022-10-09T20:10:38.282Z,86.47
2022-10-09T20:13:08.178Z,85.52
2022-10-09T20:15:44.766Z,86.84
2022-10-09T20:18:15.192Z,86.73
2022-10-09T20:20:49.084Z,86.90
2022-10-09T20:23:18.548Z,87.01
2022-10-09T20:25:50.778Z,86.12
2022-10-09T20:28:20.505Z,86.04
2022-10-09T20:30:58.893Z,86.93
2022-10-09T20:33:32.516Z,87.08
2022-10-09T20:36:01.876Z,87.39
2022-10-09T20:38:31.052Z,87.36
2022-10-09T20:41:08.763Z,87.17
2022-10-09T20:43:38.540Z,87.34
2022-10-09T20:46:09.536Z,87.36
2022-10-09T20:48:39.194Z,87.50
2022-10-09T20:51:08.409Z,87.12
2022-10-09T20:53:37.937Z,87.17
2022-10-09T20:56:09.826Z,86.82
2022-10-09T20:58:40.171Z,86.91
2022-10-09T21:01:11.196Z,86.91
2022-10-09T21:03:40.732Z,86.68
2022-10-09T21:06:12.388Z,86.93
2022-10-09T21:08:42.663Z,87.83
2022-10-09T21:11:14.161Z,87.95
2022-10-09T21:13:43.962Z,87.41
2022-10-09T21:16:15.659Z,88.10
2022-10-09T21:18:45.140Z,87.93
2022-10-09T21:21:20.650Z,88.19
2022-10-09T21:23:53.570Z,88.38
2022-10-09T21:26:24.268Z,88.62
2022-10-09T21:28:58.431Z,88.07
2022-10-09T21:31:30.926Z,87.87
2022-10-09T21:34:03.409Z,88.34
2022-10-09T21:37:20.892Z,88.81
2022-10-09T21:39:45.518Z,88.95
2022-10-09T21:42:15.126Z,88.68
2022-10-09T21:44:43.972Z,89.11
2022-10-09T21:47:19.596Z,88.77
2022-10-09T21:49:48.682Z,88.51
2022-10-09T21:52:18.287Z,88.81
2022-10-09T21:54:50.006Z,88.71
2022-10-09T21:57:19.244Z,88.43
2022-10-09T21:59:49.026Z,88.78
2022-10-09T22:02:20.201Z,88.34
2022-10-09T22:04:52.607Z,89.50
2022-10-09T22:07:21.936Z,89.67
2022-10-09T22:09:50.824Z,89.81
2022-10-09T22:12:20.689Z,89.72
2022-10-09T22:14:50.175Z,90.36
2022-10-09T22:17:19.470Z,90.24
2022-10-09T22:19:48.479Z,90.25
2022-10-09T22:22:17.938Z,91.34
2022-10-09T22:24:46.858Z,90.74
2022-10-09T22:27:16.291Z,90.75
2022-10-09T22:29:45.362Z,90.30
2022-10-09T22:32:14.680Z,89.92
2022-10-09T22:34:43.611Z,89.92
2022-10-09T22:37:12.912Z,90.30
2022-10-09T22:39:41.714Z,89.50
2022-10-09T22:42:11.286Z,89.36
2022-10-09T22:44:40.273Z,89.02
2022-10-09T22:47:10.620Z,88.36
2022-10-09T22:49:43.735Z,88.53
2022-10-09T22:52:26.002Z,88.29
2022-10-09T22:54:57.423Z,88.21
2022-10-09T22:57:26.790Z,88.06
2022-10-09T22:59:56.137Z,88.28
2022-10-09T23:02:35.454Z,87.98
2022-10-09T23:05:08.585Z,87.69
2022-10-09T23:07:40.458Z,88.09
2022-10-09T23:10:09.820Z,88.35
2022-10-09T23:12:38.800Z,87.79
2022-10-09T23:15:08.409Z,89.26
2022-10-09T23:17:37.366Z,88.10
2022-10-09T23:20:06.985Z,88.28
2022-10-09T23:22:36.058Z,88.26
2022-10-09T23:25:05.526Z,87.73
2022-10-09T23:27:34.654Z,87.53
2022-10-09T23:30:03.970Z,86.62
2022-10-09T23:32:32.875Z,86.32
2022-10-09T23:35:02.519Z,86.99
2022-10-09T23:37:31.725Z,86.38
2022-10-09T23:40:00.833Z,86.24
2022-10-09T23:42:29.786Z,85.69
2022-10-09T23:44:59.107Z,86.52
2022-10-09T23:47:28.185Z,86.83
2022-10-09T23:50:02.388Z,86.19
2022-10-09T23:52:31.412Z,86.08
2022-10-09T23:55:00.594Z,85.90
2022-10-09T23:57:30.519Z,85.92
2022-10-09T23:59:59.412Z,85.56
